Columbus Municipal Airport
KOLU : rendu visible

Aérodrome :











RETROUVEZ-NOUS SUR...

 
LOGIN :

S'inscrire | Disclaimer

   EN    FR    IT 

 









Légende :    VFR   VFR Marginal   IFR   IFR Intensif   IFR Très Intensif
Visi : 
Plafond : 
>= 8 km
>= 3000ft
5 à 8 km
1000 à 3000 ft
1500m à 5 km
500 à 1000 ft
800 à 1500m
200 à 500 ft
< 800m
< 200 ft
Symboles :   Orages  Brouillard  Fortes neiges  Fortes précipitations  Vent > 20 kt






- Altitude de l'aérodrome : 1447 ft


KOLU - Columbus Municipal

DERNIER METAR :
  • 100756Z AUTO 28004KT 10SM OVC050 M08/M09 A3009 RMK AO2 SLP216 T10781094 FZRANO

METARs EXPIRÉS :
  • 100656Z AUTO 27004KT 10SM BKN095 BKN110 M09/M11 A3007 RMK AO2 SLP210 T10891111 FZRANO
  • 100556Z AUTO 27004KT 10SM FEW070 M12/M14 A3007 RMK AO2 SLP210 T11171139 11094 21128 400331128 53009 FZRANO

TAF N/A



MET'MAP, la Météo Aéronautique d'un coup d'oeil ! - Copyright ORBIFLY Décembre 2007 - Disclaimer

ORBIFLY MET'MAP TEAM :

Programmation & Développement : Alexandra Zaïnal
Sur une idée originale de : Baudouin d'Aumeries
Assistance à la programmation : Marc-Olivier Méhu
Soutien technique & logistique : Manuel Goepfert

Contact : metmap@orbifly.com




SOURCES & CREDITS :

   NOAA       Earth
Advisory